Time;durP1;ratioP1;P1;durP2;ratioP2;P2;SDS_P1;SDS_P2;PMS_P1;PMS_P2;Temp;Humidity;BMP_temperature;BMP_pressure;BME280_temperature;BME280_humidity;BME280_pressure;Samples;Min_cycle;Max_cycle;Signal;HPM_P1;HPM_P2
2020/12/14 05:35:40;;;;;;;5.53;5.03;;;1.10;99.90;;;;;;6241605;22;20508;-90
2020/12/14 05:38:57;;;;;;;;;;;;;;;;;;;;;
2020/12/14 05:41:31;;;;;;;7.23;4.67;;;1.50;99.90;;;;;;6150467;23;20962;-92
2020/12/14 05:47:44;;;;;;;7.17;5.63;;;1.60;99.90;;;;;;6243771;23;20449;-93
2020/12/14 05:50:20;;;;;;;5.83;5.23;;;1.50;99.90;;;;;;6211495;23;20407;-93
2020/12/14 05:52:59;;;;;;;5.70;4.70;;;1.40;99.90;;;;;;6215373;23;20397;-93
2020/12/14 05:55:52;;;;;;;5.53;4.80;;;1.40;99.90;;;;;;6214776;23;20390;-92
2020/12/14 05:58:21;;;;;;;6.70;5.30;;;1.50;99.90;;;;;;6213395;23;20394;-93
2020/12/14 06:00:56;;;;;;;5.10;4.60;;;1.50;99.90;;;;;;6215246;23;20424;-91
2020/12/14 06:03:44;;;;;;;5.10;4.60;;;1.40;99.90;;;;;;6215546;23;20584;-93
2020/12/14 06:06:19;;;;;;;5.40;4.43;;;1.30;99.90;;;;;;6242042;23;20385;-92
2020/12/14 06:09:06;;;;;;;4.80;4.40;;;1.20;99.90;;;;;;6215852;23;20401;-92
2020/12/14 06:11:44;;;;;;;5.80;5.30;;;1.20;99.90;;;;;;6243028;23;20475;-93
2020/12/14 06:14:16;;;;;;;5.87;5.27;;;1.10;99.90;;;;;;6216522;23;20386;-94
2020/12/14 06:16:46;;;;;;;5.73;5.10;;;1.20;99.90;;;;;;6216473;23;20440;-93
2020/12/14 06:19:13;;;;;;;8.70;7.00;;;1.20;99.90;;;;;;6214974;23;20393;-94
2020/12/14 06:22:01;;;;;;;11.23;9.00;;;1.30;99.90;;;;;;6215746;23;20444;-93
2020/12/14 06:24:28;;;;;;;11.30;8.43;;;1.30;99.90;;;;;;6217464;23;20398;-93
2020/12/14 06:26:54;;;;;;;11.27;9.30;;;1.30;99.90;;;;;;6215952;23;20491;-93
2020/12/14 06:29:32;;;;;;;13.57;9.93;;;1.40;99.90;;;;;;6242126;23;20394;-91
2020/12/14 06:31:58;;;;;;;30.50;23.13;;;1.40;99.90;;;;;;6243167;23;20204;-93
2020/12/14 06:34:33;;;;;;;10.90;9.80;;;1.40;99.90;;;;;;6216821;23;20390;-91
2020/12/14 06:37:00;;;;;;;8.83;7.80;;;1.50;99.90;;;;;;6216351;23;20414;-93
2020/12/14 06:39:34;;;;;;;7.30;6.10;;;1.40;99.90;;;;;;6219132;23;20386;-94
2020/12/14 06:42:09;;;;;;;9.17;7.13;;;1.30;99.90;;;;;;6225445;23;20710;-95
2020/12/14 06:44:54;;;;;;;10.60;7.33;;;1.30;99.90;;;;;;6232055;23;20390;-94
2020/12/14 06:47:20;;;;;;;8.27;6.60;;;1.30;99.90;;;;;;6236754;23;20493;-93
2020/12/14 06:49:47;;;;;;;10.07;7.83;;;1.30;99.90;;;;;;6240211;23;20401;-93
2020/12/14 06:52:13;;;;;;;7.90;7.07;;;1.30;99.90;;;;;;6242211;23;20158;-94
2020/12/14 06:54:47;;;;;;;7.03;6.33;;;1.40;99.90;;;;;;6243003;23;20386;-94
2020/12/14 06:57:19;;;;;;;8.00;6.80;;;1.30;99.90;;;;;;6242917;23;20476;-92
2020/12/14 06:59:53;;;;;;;10.43;8.00;;;1.30;99.90;;;;;;6241665;23;20393;-94
2020/12/14 07:02:33;;;;;;;13.47;10.20;;;1.40;99.90;;;;;;6241198;23;20456;-94
2020/12/14 07:04:59;;;;;;;11.10;9.87;;;1.50;99.90;;;;;;6235592;23;20445;-93
2020/12/14 07:07:25;;;;;;;10.80;8.63;;;1.50;99.90;;;;;;6232672;23;20450;-92
2020/12/14 07:09:50;;;;;;;12.13;7.80;;;1.50;99.90;;;;;;6230627;23;20623;-93
2020/12/14 07:12:16;;;;;;;7.70;6.70;;;1.50;99.90;;;;;;6231014;23;20155;-93
2020/12/14 07:14:49;;;;;;;10.10;6.70;;;1.40;99.90;;;;;;6232788;23;20522;-92
2020/12/14 07:17:18;;;;;;;7.37;6.60;;;1.30;99.90;;;;;;6235029;23;20151;-93
2020/12/14 07:19:48;;;;;;;9.40;7.53;;;1.30;99.90;;;;;;6227726;23;20473;-92
2020/12/14 07:22:22;;;;;;;10.17;8.23;;;1.30;99.90;;;;;;6230294;23;20382;-93
2020/12/14 07:24:59;;;;;;;11.37;7.87;;;1.30;99.90;;;;;;6231203;23;20408;-93
2020/12/14 07:27:26;;;;;;;12.00;7.77;;;1.30;99.90;;;;;;6239811;23;20425;-94
2020/12/14 07:29:53;;;;;;;13.00;8.43;;;1.40;99.90;;;;;;6236862;23;20405;-93
2020/12/14 07:32:18;;;;;;;15.00;10.23;;;1.40;99.90;;;;;;6231331;23;20408;-93
2020/12/14 07:34:54;;;;;;;13.77;9.97;;;1.40;99.90;;;;;;6227842;23;20406;-92
2020/12/14 07:37:23;;;;;;;11.67;8.33;;;1.40;99.90;;;;;;6221680;23;20191;-90
2020/12/14 07:39:50;;;;;;;10.77;8.27;;;1.50;99.90;;;;;;6219705;23;20386;-92
2020/12/14 07:42:26;;;;;;;9.80;7.60;;;1.60;99.90;;;;;;6220040;23;20415;-92
2020/12/14 07:45:18;;;;;;;8.43;6.83;;;1.60;99.90;;;;;;6217555;23;20385;-90
2020/12/14 07:47:49;;;;;;;8.73;6.87;;;1.60;99.90;;;;;;6218416;23;20483;-92
2020/12/14 07:50:20;;;;;;;8.33;6.03;;;1.60;99.90;;;;;;6218203;23;20382;-92
2020/12/14 09:10:00;;;;;;;;;;;;;;;;;;;;;
2020/12/14 09:12:42;;;;;;;8.00;6.33;;;5.30;99.90;;;;;;6210109;23;20535;-90
2020/12/14 09:15:13;;;;;;;7.63;6.80;;;5.30;99.90;;;;;;6186612;23;20400;-93
2020/12/14 09:17:50;;;;;;;8.73;7.80;;;5.40;99.90;;;;;;6177711;23;20387;-93
2020/12/14 09:20:21;;;;;;;8.37;7.03;;;5.30;99.90;;;;;;6185560;23;20879;-90
2020/12/14 09:22:46;;;;;;;7.20;6.47;;;5.50;99.90;;;;;;6186006;23;20453;-89
2020/12/14 09:25:12;;;;;;;8.00;6.63;;;5.50;99.90;;;;;;6211575;23;20458;-88
2020/12/14 09:27:41;;;;;;;7.53;6.80;;;5.80;99.90;;;;;;6185743;23;20211;-94
2020/12/14 09:30:28;;;;;;;6.90;6.20;;;6.20;99.90;;;;;;6185831;23;20178;-89
2020/12/14 09:32:54;;;;;;;9.20;6.83;;;6.80;99.90;;;;;;6210400;23;20486;-88
2020/12/14 09:35:20;;;;;;;8.00;7.10;;;7.40;99.90;;;;;;6211081;23;20468;-87
2020/12/14 09:37:47;;;;;;;10.73;6.93;;;7.70;99.90;;;;;;6182358;23;20707;-88
2020/12/14 09:40:13;;;;;;;9.73;7.10;;;7.80;99.90;;;;;;6184385;23;20383;-87
2020/12/14 09:42:44;;;;;;;7.90;7.20;;;7.70;99.90;;;;;;6185077;23;20393;-88
2020/12/14 09:45:15;;;;;;;7.80;7.10;;;8.00;99.90;;;;;;6184659;23;20148;-90
2020/12/14 09:47:51;;;;;;;8.10;7.30;;;8.30;99.90;;;;;;6185496;23;20434;-90
2020/12/14 09:50:23;;;;;;;8.13;7.20;;;8.60;99.90;;;;;;6211107;23;20359;-90
2020/12/14 09:52:58;;;;;;;7.03;6.33;;;9.10;99.90;;;;;;6185074;23;20401;-91
2020/12/14 09:55:31;;;;;;;8.33;7.10;;;9.10;99.90;;;;;;6186688;23;20480;-93
2020/12/14 09:58:04;;;;;;;7.07;6.37;;;9.20;99.90;;;;;;6213041;23;20383;-89
2020/12/14 10:00:37;;;;;;;7.40;6.53;;;9.10;99.90;;;;;;6184507;23;20696;-90
2020/12/14 10:03:08;;;;;;;7.47;6.67;;;9.20;99.90;;;;;;6181262;23;20391;-87
2020/12/14 10:05:36;;;;;;;18.60;7.67;;;9.30;99.90;;;;;;6184737;23;20386;-88
2020/12/14 10:08:06;;;;;;;6.70;5.77;;;9.40;99.90;;;;;;6191179;23;20775;-88
2020/12/14 10:10:49;;;;;;;10.03;6.17;;;9.60;99.90;;;;;;6213496;23;20486;-90
2020/12/14 10:13:16;;;;;;;6.77;5.73;;;9.50;99.70;;;;;;6214951;23;20564;-89
2020/12/14 10:15:43;;;;;;;8.23;6.70;;;10.00;99.00;;;;;;6242331;23;20378;-89
2020/12/14 10:18:10;;;;;;;6.40;5.80;;;10.10;98.80;;;;;;6215083;23;20389;-91
2020/12/14 10:20:37;;;;;;;6.30;5.70;;;10.70;97.70;;;;;;6214334;23;20389;-93
2020/12/14 10:23:05;;;;;;;7.63;6.37;;;10.80;97.50;;;;;;6215274;23;20389;-90
2020/12/14 10:25:31;;;;;;;7.37;6.67;;;11.30;96.70;;;;;;6215523;23;20400;-93
2020/12/14 10:28:01;;;;;;;7.27;6.57;;;11.40;96.10;;;;;;6241747;23;20425;-91
2020/12/14 10:34:20;;;;;;;6.10;5.60;;;12.30;94.20;;;;;;6150320;23;20384;-92
2020/12/14 10:40:47;;;;;;;6.40;5.80;;;11.60;93.40;;;;;;6240980;23;20393;-92
2020/12/14 10:46:41;;;;;;;6.80;6.20;;;12.80;91.40;;;;;;6244930;23;20884;-92
2020/12/14 15:43:52;;;;;;;4.70;4.27;;;7.20;99.90;;;;;;6242046;23;20755;-90
2020/12/14 15:46:21;;;;;;;5.27;4.33;;;7.10;99.90;;;;;;6188298;23;20408;-92
2020/12/14 15:48:52;;;;;;;5.60;4.30;;;7.00;99.90;;;;;;6216664;23;20617;-89
2020/12/14 15:51:24;;;;;;;5.00;4.50;;;7.00;99.90;;;;;;6216131;23;20442;-90
2020/12/14 15:53:52;;;;;;;4.90;4.40;;;6.90;99.90;;;;;;6192064;23;20397;-91
2020/12/14 15:56:21;;;;;;;5.33;4.87;;;6.80;99.90;;;;;;6218762;23;20385;-92
2020/12/14 15:58:47;;;;;;;5.93;5.20;;;6.70;99.90;;;;;;6194406;23;20475;-92
2020/12/14 16:01:26;;;;;;;5.97;5.47;;;6.70;99.90;;;;;;6221457;23;20390;-93
2020/12/14 16:03:52;;;;;;;5.40;5.00;;;6.70;99.90;;;;;;6240245;23;20397;-91
2020/12/14 16:06:21;;;;;;;5.63;4.80;;;6.70;99.90;;;;;;6221541;23;20439;-95
2020/12/14 16:08:47;;;;;;;6.13;5.47;;;6.70;99.90;;;;;;6195879;23;20720;-93
2020/12/14 16:11:14;;;;;;;6.83;6.23;;;6.70;99.90;;;;;;6219667;23;20386;-93
2020/12/14 16:13:41;;;;;;;9.00;6.13;;;6.60;99.90;;;;;;6194771;23;20451;-92
2020/12/14 16:16:15;;;;;;;7.13;6.50;;;6.60;99.90;;;;;;6216731;23;20393;-93
2020/12/14 16:18:44;;;;;;;13.00;8.60;;;6.60;99.90;;;;;;6218965;23;20451;-92
2020/12/14 16:21:12;;;;;;;11.10;7.63;;;6.60;99.90;;;;;;6214021;23;20452;-91
2020/12/14 16:23:39;;;;;;;13.57;8.77;;;6.60;99.90;;;;;;6188473;23;20409;-91
2020/12/14 16:26:09;;;;;;;13.17;9.17;;;6.60;99.90;;;;;;6216717;23;20728;-90
2020/12/14 16:28:40;;;;;;;9.73;7.80;;;6.60;99.90;;;;;;6245430;23;20369;-90
2020/12/14 16:31:09;;;;;;;13.70;9.67;;;6.70;99.90;;;;;;6193435;23;20402;-91
2020/12/14 16:33:40;;;;;;;13.53;9.80;;;6.70;99.90;;;;;;6216833;23;20391;-90
2020/12/14 16:36:07;;;;;;;10.40;8.70;;;6.80;99.90;;;;;;6213042;23;20476;-93
2020/12/14 16:45:39;;;;;;;11.70;9.73;;;6.80;99.90;;;;;;6231330;23;20922;-91
2020/12/14 16:49:08;;;;;;;;;;;;;;;;;;;;;
2020/12/14 16:58:59;;;;;;;14.47;11.17;;;6.80;99.90;;;;;;6246198;23;20505;-92
2020/12/14 17:01:44;;;;;;;14.70;10.47;;;6.70;99.90;;;;;;6208573;23;20417;-90
2020/12/14 17:52:28;;;;;;;16.47;11.67;;;6.10;99.90;;;;;;6239978;23;20747;-88
2020/12/14 17:55:21;;;;;;;15.63;11.93;;;6.00;99.90;;;;;;6213415;23;20443;-86
2020/12/14 18:04:47;;;;;;;16.57;12.47;;;6.60;99.90;;;;;;6243135;23;20381;-89
2020/12/14 18:07:46;;;;;;;20.00;13.03;;;6.40;99.90;;;;;;6241612;23;20417;-90
2020/12/14 18:10:19;;;;;;;15.73;11.07;;;6.10;99.90;;;;;;6213235;23;20408;-92
2020/12/14 18:12:53;;;;;;;21.07;13.50;;;6.00;99.90;;;;;;6212534;23;20407;-91
2020/12/14 18:18:03;;;;;;;20.90;15.13;;;5.90;99.90;;;;;;6240445;23;20437;-90
2020/12/14 18:20:54;;;;;;;18.90;12.87;;;5.90;99.90;;;;;;6212807;23;20472;-91
2020/12/14 18:27:28;;;;;;;20.50;13.17;;;6.00;99.90;;;;;;6242647;23;20385;-91
2020/12/14 18:30:04;;;;;;;22.53;14.20;;;5.90;99.90;;;;;;6208954;23;20715;-91
2020/12/14 21:25:32;;;;;;;12.93;9.83;;;4.30;99.90;;;;;;6185386;23;20387;-93
2020/12/14 21:31:36;;;;;;;8.97;7.13;;;4.50;99.90;;;;;;6184740;23;20371;-92
2020/12/14 21:34:44;;;;;;;11.80;8.10;;;4.50;99.90;;;;;;6183976;23;20441;-96
2020/12/14 21:37:24;;;;;;;10.27;8.27;;;4.50;99.90;;;;;;6151060;23;20532;-91
2020/12/14 21:40:30;;;;;;;8.60;6.63;;;4.50;99.90;;;;;;6154142;23;20719;-89
2020/12/14 21:51:09;;;;;;;14.07;10.40;;;4.40;99.90;;;;;;6001589;23;20396;-87
2020/12/14 21:53:38;;;;;;;20.10;13.27;;;4.50;99.90;;;;;;6006884;23;20400;-87
2020/12/14 21:56:05;;;;;;;18.07;11.90;;;4.40;99.90;;;;;;6048019;23;20413;-86
2020/12/14 21:58:33;;;;;;;15.53;12.40;;;4.20;99.90;;;;;;6137726;23;20821;-87
2020/12/14 22:01:03;;;;;;;14.17;11.60;;;4.10;99.90;;;;;;6153768;23;20593;-86
2020/12/14 22:03:30;;;;;;;18.83;14.37;;;4.20;99.90;;;;;;6153804;23;20470;-87
2020/12/14 22:08:36;;;;;;;21.40;16.20;;;4.20;99.90;;;;;;6190959;23;20379;-88
2020/12/14 22:11:06;;;;;;;23.87;16.77;;;4.30;99.90;;;;;;6153261;23;20765;-87
2020/12/14 22:13:33;;;;;;;22.30;17.03;;;4.30;99.90;;;;;;6153801;23;20451;-88
2020/12/14 22:16:04;;;;;;;24.03;15.60;;;4.30;99.90;;;;;;6153932;23;20419;-88
2020/12/14 22:18:30;;;;;;;21.03;14.13;;;4.20;99.90;;;;;;6154434;23;20756;-88
2020/12/14 22:20:58;;;;;;;15.47;11.40;;;4.10;99.90;;;;;;6180374;23;20376;-88
2020/12/14 22:23:31;;;;;;;16.40;10.67;;;4.10;99.90;;;;;;6175239;23;20176;-88
2020/12/14 22:25:59;;;;;;;17.23;11.30;;;4.10;99.90;;;;;;6209557;23;20384;-87
2020/12/14 22:28:27;;;;;;;13.53;10.60;;;4.10;99.90;;;;;;6180533;23;20387;-89
2020/12/14 22:30:59;;;;;;;15.47;11.60;;;3.90;99.90;;;;;;6209882;23;20381;-88
2020/12/14 22:36:38;;;;;;;17.03;11.10;;;4.00;99.90;;;;;;6210069;23;20372;-88
2020/12/14 22:39:17;;;;;;;17.90;13.00;;;4.00;99.90;;;;;;6182207;23;20431;-88
2020/12/14 22:41:55;;;;;;;15.77;12.70;;;3.80;99.90;;;;;;6183863;23;20717;-89
2020/12/14 22:44:55;;;;;;;16.30;12.80;;;3.80;99.90;;;;;;6183730;23;20386;-88
2020/12/14 22:47:31;;;;;;;17.50;12.50;;;3.70;99.90;;;;;;6183634;23;20608;-87
2020/12/14 23:00:59;;;;;;;15.73;12.27;;;3.80;99.90;;;;;;6210225;23;20366;-89
2020/12/14 23:44:03;;;;;;;23.97;16.90;;;4.20;99.90;;;;;;6212518;23;20924;-88
2020/12/14 23:50:04;;;;;;;20.73;14.77;;;4.30;99.90;;;;;;6214003;23;20398;-88
2020/12/14 23:53:05;;;;;;;22.03;15.30;;;4.20;99.90;;;;;;6216759;23;20405;-88
2020/12/14 23:56:20;;;;;;;21.43;14.77;;;4.20;99.90;;;;;;6216749;23;20386;-89
2020/12/14 23:59:10;;;;;;;16.00;11.57;;;4.20;99.90;;;;;;6215026;23;20434;-88
